createdAt,value
2018-04-17T00:00:31.680Z,99517.38
2018-04-17T00:03:00.675Z,99518.50
2018-04-17T00:05:29.143Z,99518.14
2018-04-17T00:07:59.162Z,99518.00
2018-04-17T00:10:27.543Z,99517.14
2018-04-17T00:12:57.208Z,99517.20
2018-04-17T00:15:25.719Z,99521.86
2018-04-17T00:17:54.434Z,99525.20
2018-04-17T00:20:23.422Z,99531.88
2018-04-17T00:22:53.101Z,99529.45
2018-04-17T00:25:22.636Z,99538.55
2018-04-17T00:27:51.533Z,99543.70
2018-04-17T00:30:20.346Z,99542.67
2018-04-17T00:32:50.779Z,99553.59
2018-04-17T00:35:19.149Z,99553.97
2018-04-17T00:37:48.901Z,99556.38
2018-04-17T00:40:17.338Z,99558.25
2018-04-17T00:42:45.743Z,99563.22
2018-04-17T00:45:14.300Z,99562.48
2018-04-17T00:47:43.437Z,99561.37
2018-04-17T00:50:12.613Z,99568.23
2018-04-17T00:52:41.831Z,99573.78
2018-04-17T00:55:10.250Z,99573.48
2018-04-17T00:57:39.451Z,99576.41
2018-04-17T01:00:07.798Z,99577.75
2018-04-17T01:02:37.760Z,99577.84
2018-04-17T01:05:06.618Z,99577.24
2018-04-17T01:07:35.582Z,99578.95
2018-04-17T01:10:04.963Z,99577.34
2018-04-17T01:12:34.202Z,99580.65
2018-04-17T01:15:02.594Z,99582.72
2018-04-17T01:17:32.396Z,99584.11
2018-04-17T01:20:02.623Z,99584.55
2018-04-17T01:22:31.591Z,99585.08
2018-04-17T01:25:00.339Z,99584.81
2018-04-17T01:27:29.062Z,99585.34
2018-04-17T01:29:58.664Z,99587.71
2018-04-17T01:32:27.039Z,99590.94
2018-04-17T01:34:56.299Z,99590.80
2018-04-17T01:37:25.598Z,99591.63
2018-04-17T01:39:53.964Z,99594.23
2018-04-17T01:42:23.118Z,99594.23
2018-04-17T01:44:51.504Z,99600.45
2018-04-17T01:47:21.329Z,99596.28
2018-04-17T01:49:49.744Z,99599.28
2018-04-17T01:52:18.897Z,99600.72
2018-04-17T01:54:49.085Z,99599.06
2018-04-17T01:57:18.383Z,99610.89
2018-04-17T01:59:48.492Z,99605.20
2018-04-17T02:02:16.890Z,99597.84
2018-04-17T02:04:45.509Z,99603.34
2018-04-17T02:07:15.406Z,99607.75
2018-04-17T02:09:44.694Z,99603.09
2018-04-17T02:12:14.543Z,99601.91
2018-04-17T02:14:42.918Z,99596.59
2018-04-17T02:17:13.558Z,99606.31
2018-04-17T02:19:42.911Z,99609.15
2018-04-17T02:22:12.098Z,99609.82
2018-04-17T02:24:42.374Z,99605.57
2018-04-17T02:27:11.136Z,99609.73
2018-04-17T02:29:42.265Z,99618.88
2018-04-17T02:32:12.920Z,99621.38
2018-04-17T02:34:42.109Z,99624.99
2018-04-17T02:37:12.416Z,99630.91
2018-04-17T02:39:42.656Z,99630.02
2018-04-17T02:42:11.965Z,99631.20
2018-04-17T02:44:41.681Z,99638.56
2018-04-17T02:47:11.681Z,99646.26
2018-04-17T02:49:41.093Z,99632.53
2018-04-17T02:52:10.382Z,99639.03
2018-04-17T02:54:39.681Z,99639.59
2018-04-17T02:57:08.801Z,99641.29
2018-04-17T02:59:38.308Z,99644.16
2018-04-17T03:02:06.689Z,99642.95
2018-04-17T03:04:37.185Z,99649.35
2018-04-17T03:07:06.540Z,99639.69
2018-04-17T03:09:35.712Z,99643.05
2018-04-17T03:12:04.158Z,99648.38
2018-04-17T03:14:34.343Z,99655.22
2018-04-17T03:17:03.998Z,99655.87
2018-04-17T03:19:32.425Z,99657.02
2018-04-17T03:22:01.652Z,99654.13
2018-04-17T03:24:30.026Z,99650.31
2018-04-17T03:26:59.843Z,99655.02
2018-04-17T03:29:29.065Z,99650.70
2018-04-17T03:31:59.171Z,99655.34
2018-04-17T03:34:29.149Z,99662.61
2018-04-17T03:36:58.444Z,99663.81
2018-04-17T03:39:28.594Z,99676.80
2018-04-17T03:41:59.608Z,99674.66
2018-04-17T03:44:28.853Z,99686.98
2018-04-17T03:46:57.628Z,99686.98
2018-04-17T03:49:26.613Z,99682.15
2018-04-17T03:51:55.383Z,99687.30
2018-04-17T03:54:23.829Z,99687.82
2018-04-17T03:56:53.685Z,99691.32
2018-04-17T03:59:22.872Z,99700.08
2018-04-17T04:01:51.256Z,99695.16
2018-04-17T04:04:19.656Z,99700.55
2018-04-17T04:06:48.664Z,99700.89
2018-04-17T04:09:17.863Z,99700.55
2018-04-17T04:11:47.866Z,99702.70
2018-04-17T04:14:16.302Z,99704.05
2018-04-17T04:16:57.165Z,99703.02
2018-04-17T04:19:38.843Z,99706.66
2018-04-17T04:22:19.041Z,99715.50
2018-04-17T04:25:00.257Z,99715.12
2018-04-17T04:27:30.703Z,99716.95
2018-04-17T04:29:59.054Z,99718.61
2018-04-17T04:32:29.625Z,99723.45
2018-04-17T04:34:58.577Z,99722.67
2018-04-17T04:37:27.675Z,99720.84
2018-04-17T04:39:56.959Z,99724.51
2018-04-17T04:42:25.390Z,99726.23
2018-04-17T04:44:54.158Z,99719.64
2018-04-17T04:47:23.402Z,99736.35
2018-04-17T04:49:52.933Z,99734.53
2018-04-17T04:52:21.836Z,99738.07
2018-04-17T04:54:50.249Z,99737.69
2018-04-17T04:57:19.357Z,99736.48
2018-04-17T04:59:48.029Z,99735.78
2018-04-17T05:02:18.588Z,99745.74
2018-04-17T05:04:48.042Z,99745.95
2018-04-17T05:07:17.273Z,99739.73
2018-04-17T05:09:46.645Z,99747.14
2018-04-17T05:12:15.988Z,99750.95
2018-04-17T05:14:45.648Z,99753.24
2018-04-17T05:17:14.024Z,99755.53
2018-04-17T05:19:42.617Z,99758.50
2018-04-17T05:22:10.959Z,99768.77
2018-04-17T05:24:39.618Z,99778.70
2018-04-17T05:27:08.471Z,99778.78
2018-04-17T05:29:37.139Z,99786.09
2018-04-17T05:32:05.530Z,99790.38
2018-04-17T05:34:34.844Z,99798.66
2018-04-17T05:37:03.219Z,99801.17
2018-04-17T05:39:32.324Z,99804.16
2018-04-17T05:42:02.878Z,99805.55
2018-04-17T05:44:33.038Z,99810.34
2018-04-17T05:47:01.442Z,99811.27
2018-04-17T05:49:30.730Z,99815.93
2018-04-17T05:51:59.669Z,99821.22
2018-04-17T05:54:28.555Z,99827.19
2018-04-17T05:56:57.893Z,99825.78
2018-04-17T05:59:27.266Z,99832.09
2018-04-17T06:01:57.494Z,99829.88
2018-04-17T06:04:25.923Z,99834.09
2018-04-17T06:06:55.205Z,99839.11
2018-04-17T06:09:24.223Z,99837.84
2018-04-17T06:11:53.354Z,99845.45
2018-04-17T06:14:21.977Z,99852.50
2018-04-17T06:16:50.382Z,99854.62
2018-04-17T06:19:19.768Z,99858.92
2018-04-17T06:21:49.203Z,99858.45
2018-04-17T06:24:17.606Z,99866.44
2018-04-17T06:26:46.430Z,99869.86
2018-04-17T06:29:15.680Z,99864.69
2018-04-17T06:31:44.869Z,99874.13
2018-04-17T06:34:13.325Z,99877.50
2018-04-17T06:36:42.931Z,99878.31
2018-04-17T06:39:11.871Z,99890.30
2018-04-17T06:41:42.514Z,99894.44
2018-04-17T06:44:12.055Z,99900.83
2018-04-17T06:46:41.486Z,99904.39
2018-04-17T06:49:12.033Z,99904.21
2018-04-17T06:51:41.222Z,99901.80
2018-04-17T06:54:11.762Z,99903.26
2018-04-17T06:56:42.523Z,99907.44
2018-04-17T06:59:11.676Z,99916.03
2018-04-17T07:01:40.290Z,99913.91
2018-04-17T07:04:08.789Z,99916.39
2018-04-17T07:06:37.232Z,99915.86
2018-04-17T07:09:06.509Z,99917.89
2018-04-17T07:11:34.886Z,99919.94
2018-04-17T07:14:04.029Z,99930.73
2018-04-17T07:16:33.316Z,99929.24
2018-04-17T07:19:02.138Z,99927.72
2018-04-17T07:21:30.458Z,99927.49
2018-04-17T07:24:00.220Z,99919.31
2018-04-17T07:26:30.849Z,99924.54
2018-04-17T07:29:00.726Z,99924.75
2018-04-17T07:31:29.121Z,99920.89
2018-04-17T07:33:58.381Z,99928.72
2018-04-17T07:36:27.984Z,99928.41
2018-04-17T07:38:57.135Z,99927.73
2018-04-17T07:41:25.556Z,99932.20
2018-04-17T07:43:55.537Z,99923.13
2018-04-17T07:46:25.625Z,99928.77
2018-04-17T07:49:10.090Z,99934.66
2018-04-17T07:51:39.415Z,99933.69
2018-04-17T07:54:08.679Z,99930.50
2018-04-17T07:56:38.294Z,99931.66
2018-04-17T07:59:07.569Z,99934.59
2018-04-17T08:01:36.133Z,99936.97
2018-04-17T08:04:04.533Z,99936.73
2018-04-17T08:06:32.985Z,99938.95
2018-04-17T08:09:02.679Z,99935.78
2018-04-17T08:11:31.294Z,99929.67
2018-04-17T08:14:00.725Z,99936.02
2018-04-17T08:16:29.567Z,99929.45
2018-04-17T08:18:59.885Z,99927.61
2018-04-17T08:21:29.802Z,99933.67
2018-04-17T08:23:58.769Z,99937.28
2018-04-17T08:26:28.096Z,99932.06
2018-04-17T08:28:57.368Z,99935.89
2018-04-17T08:31:25.801Z,99938.48
2018-04-17T08:33:54.966Z,99941.18
2018-04-17T08:36:23.415Z,99942.75
2018-04-17T08:38:52.433Z,99939.98
2018-04-17T08:41:21.059Z,99943.09
2018-04-17T08:43:51.352Z,99945.75
2018-04-17T08:46:20.379Z,99952.20
2018-04-17T08:48:48.819Z,99953.39
2018-04-17T08:51:18.077Z,99961.84
2018-04-17T08:53:47.443Z,99955.20
2018-04-17T08:56:16.063Z,99957.31
2018-04-17T08:58:44.449Z,99959.08
2018-04-17T09:01:14.252Z,99963.32
2018-04-17T09:03:43.252Z,99968.61
2018-04-17T09:06:11.831Z,99968.15
2018-04-17T09:08:40.199Z,99974.64
2018-04-17T09:11:09.484Z,99979.13
2018-04-17T09:13:37.999Z,99984.53
2018-04-17T09:16:08.295Z,99981.06
2018-04-17T09:18:37.311Z,99979.72
2018-04-17T09:21:05.690Z,99978.02
2018-04-17T09:23:35.604Z,99983.37
2018-04-17T09:26:05.940Z,99984.52
2018-04-17T09:28:34.290Z,99989.97
2018-04-17T09:31:03.725Z,99992.38
2018-04-17T09:33:32.071Z,99993.38
2018-04-17T09:36:02.236Z,99984.11
2018-04-17T09:38:31.493Z,99989.40
2018-04-17T09:41:00.012Z,99993.89
2018-04-17T09:43:28.397Z,99991.20
2018-04-17T09:45:57.684Z,99991.94
2018-04-17T09:48:26.558Z,99987.89
2018-04-17T09:50:56.275Z,99989.19
2018-04-17T09:53:26.797Z,99987.20
2018-04-17T09:55:56.075Z,99980.88
2018-04-17T09:58:24.555Z,99979.45
2018-04-17T10:00:59.357Z,99977.09
2018-04-17T10:03:27.874Z,99973.77
2018-04-17T10:05:56.264Z,99971.97
2018-04-17T10:08:27.138Z,99972.63
2018-04-17T10:10:56.380Z,99971.28
2018-04-17T10:13:25.637Z,99966.89
2018-04-17T10:15:54.045Z,99970.42
2018-04-17T10:18:24.231Z,99966.59
2018-04-17T10:20:53.775Z,99966.48
2018-04-17T10:23:23.766Z,99967.98
2018-04-17T10:25:52.185Z,99966.19
2018-04-17T10:28:21.332Z,99968.14
2018-04-17T10:30:50.031Z,99964.34
2018-04-17T10:33:18.597Z,99961.83
2018-04-17T10:35:47.017Z,99963.38
2018-04-17T10:38:17.027Z,99959.03
2018-04-17T10:40:46.616Z,99958.53
2018-04-17T10:43:14.962Z,99948.79
2018-04-17T10:45:44.491Z,99952.95
2018-04-17T10:48:13.303Z,99944.25
2018-04-17T10:50:42.067Z,99951.08
2018-04-17T10:53:10.502Z,99944.35
2018-04-17T10:55:38.957Z,99947.34
2018-04-17T10:58:07.938Z,99946.09
2018-04-17T11:00:37.105Z,99941.76
2018-04-17T11:03:05.533Z,99938.38
2018-04-17T11:05:35.175Z,99938.66
2018-04-17T11:08:04.362Z,99941.95
2018-04-17T11:10:32.858Z,99938.81
2018-04-17T11:13:01.415Z,99932.66
2018-04-17T11:15:30.229Z,99931.46
2018-04-17T11:18:00.191Z,99932.48
2018-04-17T11:20:29.719Z,99932.59
2018-04-17T11:22:58.174Z,99926.87
2018-04-17T11:25:26.574Z,99927.17
2018-04-17T11:27:54.906Z,99925.86
2018-04-17T11:30:24.219Z,99932.42
2018-04-17T11:32:54.301Z,99936.57
2018-04-17T11:35:23.429Z,99925.98
2018-04-17T11:37:51.818Z,99929.06
2018-04-17T11:40:21.107Z,99930.58
2018-04-17T11:42:49.531Z,99930.59
2018-04-17T11:45:19.581Z,99926.34
2018-04-17T11:47:48.897Z,99934.88
2018-04-17T11:50:18.093Z,99929.47
2018-04-17T11:52:47.999Z,99929.78
2018-04-17T11:55:17.715Z,99931.00
2018-04-17T11:57:47.083Z,99935.70
2018-04-17T12:00:16.341Z,99931.98
2018-04-17T12:02:44.667Z,99934.02
2018-04-17T12:05:13.599Z,99929.91
2018-04-17T12:07:41.921Z,99937.41
2018-04-17T12:10:11.205Z,99935.84
2018-04-17T12:12:40.405Z,99948.09
2018-04-17T12:15:08.861Z,99940.47
2018-04-17T12:17:37.628Z,99948.94
2018-04-17T12:20:08.404Z,99950.97
2018-04-17T12:22:37.935Z,99947.06
2018-04-17T12:25:07.160Z,99951.15
2018-04-17T12:27:36.450Z,99932.95
2018-04-17T12:30:04.809Z,99933.20
2018-04-17T12:32:33.411Z,99936.20
2018-04-17T12:35:02.497Z,99928.53
2018-04-17T12:37:31.147Z,99933.09
2018-04-17T12:39:59.760Z,99935.77
2018-04-17T12:42:28.560Z,99937.22
2018-04-17T12:44:58.445Z,99934.13
2018-04-17T12:47:26.806Z,99937.95
2018-04-17T12:49:55.712Z,99931.01
2018-04-17T12:52:24.455Z,99935.40
2018-04-17T12:54:54.153Z,99931.25
2018-04-17T12:57:23.308Z,99941.12
2018-04-17T12:59:52.675Z,99936.68
2018-04-17T13:02:22.471Z,99936.26
2018-04-17T13:04:52.743Z,99940.78
2018-04-17T13:07:25.864Z,99939.27
2018-04-17T13:09:54.672Z,99936.05
2018-04-17T13:12:23.882Z,99935.05
2018-04-17T13:14:53.110Z,99935.57
2018-04-17T13:17:21.493Z,99932.66
2018-04-17T13:19:50.837Z,99931.87
2018-04-17T13:22:19.226Z,99936.69
2018-04-17T13:24:48.463Z,99939.36
2018-04-17T13:27:18.310Z,99934.09
2018-04-17T13:29:47.544Z,99936.12
2018-04-17T13:32:15.940Z,99928.72
2018-04-17T13:34:45.624Z,99930.80
2018-04-17T13:37:15.551Z,99930.24
2018-04-17T13:39:44.153Z,99923.91
2018-04-17T13:42:12.593Z,99918.95
2018-04-17T13:44:41.223Z,99918.05
2018-04-17T13:47:09.597Z,99915.94
2018-04-17T13:49:39.005Z,99914.75
2018-04-17T13:52:08.333Z,99910.44
2018-04-17T13:54:36.832Z,99907.49
2018-04-17T13:57:05.294Z,99910.11
2018-04-17T13:59:33.637Z,99915.45
2018-04-17T14:02:02.698Z,99912.09
2018-04-17T14:04:32.069Z,99911.07
2018-04-17T14:07:03.922Z,99903.48
2018-04-17T14:09:34.111Z,99907.28
2018-04-17T14:12:03.222Z,99900.69
2018-04-17T14:14:32.550Z,99905.05
2018-04-17T14:17:02.489Z,99898.62
2018-04-17T14:19:32.616Z,99910.03
2018-04-17T14:22:01.911Z,99904.10
2018-04-17T14:24:30.481Z,99918.05
2018-04-17T14:26:58.979Z,99913.56
2018-04-17T14:29:28.231Z,99928.52
2018-04-17T14:31:56.650Z,99929.93
2018-04-17T14:34:26.335Z,99919.73
2018-04-17T14:36:54.936Z,99923.02
2018-04-17T14:39:23.736Z,99927.02
2018-04-17T14:41:53.141Z,99927.79
2018-04-17T14:44:22.472Z,99924.11
2018-04-17T14:46:51.699Z,99913.45
2018-04-17T14:49:20.871Z,99918.71
2018-04-17T14:51:49.266Z,99918.76
2018-04-17T14:54:18.594Z,99923.70
2018-04-17T14:56:48.490Z,99920.22
2018-04-17T14:59:17.525Z,99925.45
2018-04-17T15:01:46.818Z,99923.13
2018-04-17T15:04:17.240Z,99919.78
2018-04-17T15:06:45.684Z,99916.48
2018-04-17T15:09:15.546Z,99917.55
2018-04-17T15:11:46.370Z,99916.80
2018-04-17T15:14:15.647Z,99914.59
2018-04-17T15:16:43.980Z,99917.55
2018-04-17T15:19:14.306Z,99914.26
2018-04-17T15:21:43.065Z,99909.37
2018-04-17T15:24:13.506Z,99904.13
2018-04-17T15:26:43.904Z,99908.16
2018-04-17T15:29:14.243Z,99909.31
2018-04-17T15:31:43.421Z,99905.45
2018-04-17T15:34:12.869Z,99906.87
2018-04-17T15:36:41.346Z,99906.05
2018-04-17T15:39:10.830Z,99895.03
2018-04-17T15:41:40.258Z,99907.98
2018-04-17T15:44:09.360Z,99908.03
2018-04-17T15:46:38.621Z,99912.06
2018-04-17T15:49:08.590Z,99909.87
2018-04-17T15:51:37.855Z,99910.88
2018-04-17T15:54:07.479Z,99916.50
2018-04-17T15:56:37.764Z,99915.29
2018-04-17T15:59:07.031Z,99917.84
2018-04-17T16:01:35.417Z,99923.27
2018-04-17T16:04:04.741Z,99927.74
2018-04-17T16:06:33.210Z,99927.42
2018-04-17T16:09:01.837Z,99933.52
2018-04-17T16:11:30.189Z,99929.32
2018-04-17T16:13:58.589Z,99938.80
2018-04-17T16:16:27.112Z,99939.95
2018-04-17T16:18:56.072Z,99929.80
2018-04-17T16:21:25.255Z,99935.86
2018-04-17T16:23:55.592Z,99939.70
2018-04-17T16:26:24.770Z,99941.81
2018-04-17T16:28:53.548Z,99939.13
2018-04-17T16:31:24.258Z,99946.11
2018-04-17T16:33:53.539Z,99944.56
2018-04-17T16:36:22.455Z,99948.64
2018-04-17T16:38:51.761Z,99948.12
2018-04-17T16:41:20.439Z,99960.24
2018-04-17T16:43:48.933Z,99956.88
2018-04-17T16:46:18.071Z,99956.89
2018-04-17T16:48:47.248Z,99954.03
2018-04-17T16:51:16.425Z,99958.17
2018-04-17T16:53:45.561Z,99960.41
2018-04-17T16:56:13.908Z,99963.91
2018-04-17T16:58:43.604Z,99959.27
2018-04-17T17:01:12.985Z,99969.92
2018-04-17T17:03:41.325Z,99965.20
2018-04-17T17:06:12.226Z,99967.44
2018-04-17T17:08:48.277Z,99964.48
2018-04-17T17:11:19.437Z,99966.77
2018-04-17T17:13:48.654Z,99967.72
2018-04-17T17:16:17.053Z,99967.56
2018-04-17T17:18:48.804Z,99971.84
2018-04-17T17:21:19.024Z,99967.00
2018-04-17T17:23:50.077Z,99966.14
2018-04-17T17:26:21.357Z,99969.14
2018-04-17T17:28:51.673Z,99971.25
2018-04-17T17:31:20.861Z,99975.74
2018-04-17T17:33:49.999Z,99978.78
2018-04-17T17:36:19.929Z,99978.44
2018-04-17T17:38:52.298Z,99977.91
2018-04-17T17:41:20.701Z,99983.22
2018-04-17T17:43:50.709Z,99987.75
2018-04-17T17:46:19.083Z,99997.11
2018-04-17T17:48:48.170Z,99997.26
2018-04-17T17:51:17.370Z,99998.27
2018-04-17T17:53:46.913Z,100010.03
2018-04-17T17:56:15.308Z,100007.27
2018-04-17T17:58:45.785Z,100014.59
2018-04-17T18:01:15.249Z,100016.63
2018-04-17T18:03:44.527Z,100008.54
2018-04-17T18:06:15.097Z,100016.55
2018-04-17T18:08:45.059Z,100015.70
2018-04-17T18:11:17.489Z,100019.30
2018-04-17T18:13:46.379Z,100016.83
2018-04-17T18:16:16.940Z,100022.89
2018-04-17T18:18:45.284Z,100022.39
2018-04-17T18:21:15.734Z,100030.25
2018-04-17T18:23:44.796Z,100033.25
2018-04-17T18:26:13.620Z,100044.34
2018-04-17T18:28:43.263Z,100040.42
2018-04-17T18:31:12.610Z,100045.70
2018-04-17T18:33:41.212Z,100049.34
2018-04-17T18:36:10.080Z,100049.09
2018-04-17T18:38:39.299Z,100046.78
2018-04-17T18:41:08.210Z,100049.37
2018-04-17T18:43:39.257Z,100058.80
2018-04-17T18:46:09.066Z,100069.88
2018-04-17T18:48:39.151Z,100068.58
2018-04-17T18:51:09.339Z,100078.19
2018-04-17T18:53:46.518Z,100082.97
2018-04-17T18:56:16.686Z,100087.22
2018-04-17T18:58:45.988Z,100090.61
2018-04-17T19:01:14.394Z,100095.42
2018-04-17T19:03:44.214Z,100098.45
2018-04-17T19:06:12.782Z,100100.32
2018-04-17T19:08:41.903Z,100098.81
2018-04-17T19:11:10.288Z,100101.61
2018-04-17T19:13:40.532Z,100106.14
2018-04-17T19:16:08.915Z,100106.07
2018-04-17T19:18:38.389Z,100113.08
2018-04-17T19:21:07.196Z,100109.94
2018-04-17T19:23:36.711Z,100115.36
2018-04-17T19:26:06.437Z,100115.77
2018-04-17T19:28:34.834Z,100120.93
2018-04-17T19:31:05.390Z,100107.77
2018-04-17T19:33:35.775Z,100113.36
2018-04-17T19:36:04.113Z,100110.97
2018-04-17T19:38:33.221Z,100108.59
2018-04-17T19:41:01.825Z,100111.10
2018-04-17T19:43:32.312Z,100109.81
2018-04-17T19:46:00.641Z,100113.78
2018-04-17T19:48:29.041Z,100108.27
2018-04-17T19:50:58.121Z,100113.70
2018-04-17T19:53:27.334Z,100119.32
2018-04-17T19:55:57.238Z,100122.14
2018-04-17T19:58:25.634Z,100131.63
2018-04-17T20:00:54.892Z,100136.28
2018-04-17T20:03:23.257Z,100145.34
2018-04-17T20:05:51.660Z,100145.53
2018-04-17T20:08:20.760Z,100146.83
2018-04-17T20:10:49.858Z,100149.90
2018-04-17T20:13:18.558Z,100152.61
2018-04-17T20:15:46.939Z,100151.16
2018-04-17T20:18:16.769Z,100159.95
2018-04-17T20:20:45.103Z,100156.84
2018-04-17T20:23:14.387Z,100158.23
2018-04-17T20:25:43.468Z,100160.38
2018-04-17T20:28:14.750Z,100161.92
2018-04-17T20:30:43.564Z,100160.32
2018-04-17T20:33:12.399Z,100168.73
2018-04-17T20:35:40.857Z,100168.02
2018-04-17T20:38:09.272Z,100169.31
2018-04-17T20:40:38.033Z,100173.05
2018-04-17T20:43:06.948Z,100175.78
2018-04-17T20:45:36.337Z,100170.25
2018-04-17T20:48:05.775Z,100168.86
2018-04-17T20:50:34.213Z,100169.29
2018-04-17T20:53:03.506Z,100171.97
2018-04-17T20:55:32.737Z,100173.55
2018-04-17T20:58:02.436Z,100175.71
2018-04-17T21:00:31.677Z,100173.42
2018-04-17T21:03:00.803Z,100184.39
2018-04-17T21:05:29.518Z,100173.09
2018-04-17T21:07:58.247Z,100171.33
2018-04-17T21:10:26.742Z,100175.56
2018-04-17T21:12:55.451Z,100175.79
2018-04-17T21:15:23.805Z,100173.14
2018-04-17T21:17:52.202Z,100175.72
2018-04-17T21:20:22.303Z,100180.34
2018-04-17T21:22:50.670Z,100179.77
2018-04-17T21:25:20.466Z,100182.50
2018-04-17T21:27:48.905Z,100180.84
2018-04-17T21:30:18.152Z,100188.03
2018-04-17T21:32:46.548Z,100186.32
2018-04-17T21:35:15.370Z,100188.75
2018-04-17T21:37:45.374Z,100194.51
2018-04-17T21:40:13.748Z,100194.62
2018-04-17T21:42:43.601Z,100195.59
2018-04-17T21:45:12.208Z,100198.73
2018-04-17T21:47:42.208Z,100199.75
2018-04-17T21:50:10.696Z,100197.11
2018-04-17T21:52:40.742Z,100200.66
2018-04-17T21:55:09.120Z,100201.80
2018-04-17T21:57:38.169Z,100208.55
2018-04-17T22:00:07.085Z,100212.55
2018-04-17T22:02:35.806Z,100215.95
2018-04-17T22:05:05.330Z,100218.33
2018-04-17T22:07:33.733Z,100219.95
2018-04-17T22:10:03.859Z,100226.68
2018-04-17T22:12:34.805Z,100223.70
2018-04-17T22:15:03.227Z,100226.47
2018-04-17T22:17:31.649Z,100229.46
2018-04-17T22:20:01.522Z,100229.09
2018-04-17T22:22:31.201Z,100232.64
2018-04-17T22:24:59.574Z,100234.98
2018-04-17T22:27:27.989Z,100237.66
2018-04-17T22:29:58.014Z,100236.11
2018-04-17T22:32:27.522Z,100233.89
2018-04-17T22:34:57.261Z,100242.17
2018-04-17T22:37:27.705Z,100248.48
2018-04-17T22:39:56.831Z,100250.52
2018-04-17T22:42:27.848Z,100260.59
2018-04-17T22:44:57.752Z,100263.31
2018-04-17T22:47:26.724Z,100264.84
2018-04-17T22:49:56.274Z,100268.35
2018-04-17T22:52:26.015Z,100266.27
2018-04-17T22:54:54.354Z,100266.92
2018-04-17T22:57:22.961Z,100264.77
2018-04-17T22:59:52.514Z,100257.10
2018-04-17T23:02:21.798Z,100264.94
2018-04-17T23:04:50.846Z,100259.17
2018-04-17T23:07:20.741Z,100268.98
2018-04-17T23:09:50.125Z,100264.63
2018-04-17T23:12:18.767Z,100271.19
2018-04-17T23:14:49.606Z,100276.73
2018-04-17T23:17:18.040Z,100280.31
2018-04-17T23:19:48.227Z,100277.76
2018-04-17T23:22:16.672Z,100279.35
2018-04-17T23:24:45.105Z,100280.03
2018-04-17T23:27:14.405Z,100286.15
2018-04-17T23:29:44.203Z,100286.95
2018-04-17T23:32:13.381Z,100283.33
2018-04-17T23:34:42.620Z,100285.75
2018-04-17T23:37:11.874Z,100284.72
2018-04-17T23:39:40.559Z,100288.30
2018-04-17T23:42:09.701Z,100284.52
2018-04-17T23:44:38.103Z,100291.09
2018-04-17T23:47:07.346Z,100283.72
2018-04-17T23:49:37.517Z,100291.17
2018-04-17T23:52:05.844Z,100293.46
2018-04-17T23:54:34.215Z,100298.67
2018-04-17T23:57:04.209Z,100298.20
2018-04-17T23:59:33.617Z,100296.41
